Skip to main content

NOAA/GLERL Met Station at Michigan City, IN

Previous 5 days (top of hour only)
See also Previous 3 Hours (2 minute increments)
Jump down to Data
Switch to [English][Metric]
Zoom: Click and drag, Pan: shift-click and drag, Unzoom: double-click, Unzoom All





Note: Speed = mean wind during 2-minute period at top of hour,
Gust = max wind during 2-minute period at top of hour,
Peak = max wind during entire hour.
• See also 5-day windrose plot


NOAA/GLERL Met Station at Michigan City, IN

Previous 5 days (top of hour only)
See also Previous 3 Hours (2 minute increments)
Jump up to Graphs
Switch to [English][Metric]
                  Wind  Wind  Wind   Air   Dew   Rel     Sta   PAR
                   Spd   Gst   Dir  Temp    Pt   Hum    Pres uE/m2/
YYYY-MM-DD   CDT   kts   kts   deg     F     F     %   in Hg   sec
2018-10-20 11:00  29.7  33.2   244  51.8  39.1  61.6    0.00   987
2018-10-20 10:00  23.1  25.5   231  50.7  40.9  68.8    0.00   822
2018-10-20 09:00  24.1  27.2   233  50.4  40.8  69.4    0.00   576
2018-10-20 08:00  25.5  27.0   248  51.1  39.7  64.6    0.00   247
2018-10-20 07:00  24.3  26.2   265  52.3  40.9  64.7    0.00     0
2018-10-20 06:00  26.0  27.8   265  53.2  41.7  64.5    0.00     0
2018-10-20 05:00  25.3  28.0   269  54.1  42.5  64.5    0.00     0
2018-10-20 04:00  23.7  25.7   269  55.2  43.9  65.3    0.00     0
2018-10-20 03:00  20.8  22.9   254  55.2  48.5  77.8    0.00     0
2018-10-20 02:00  22.2  24.1   252  55.4  49.8  81.3    0.00     0
2018-10-20 01:00  24.5  26.4   247  55.4  50.6  83.6    0.00     0
2018-10-20 00:00  27.0  30.7   235  55.4  51.2  85.6    0.00     0
2018-10-19 23:00  27.4  30.3   221  54.9  50.1  83.7    0.00     0
2018-10-19 22:00  19.1  23.9   227  54.7  48.7  80.0    0.00     0
2018-10-19 21:00  21.6  24.7   204  53.6  47.6  80.0    0.00     0
2018-10-19 20:00  21.4  24.1   195  52.5  47.7  83.5    0.00     0
2018-10-19 19:00  22.4  26.4   202  51.1  48.7  91.3    0.00     0
2018-10-19 18:00  18.5  23.7   193  49.8  47.6  92.1    0.00     0
2018-10-19 17:00  19.6  23.9   184  48.7  45.9  89.9    0.00     2
2018-10-19 16:00  15.2  17.3   182  48.9  44.9  85.7    0.00   165
2018-10-19 15:00  14.0  17.9   187  49.3  43.9  81.6    0.00   209
2018-10-19 14:00  14.4  16.5   213  52.3  40.7  64.3    0.00   165
2018-10-19 13:00   9.3  11.7   186  54.3  37.4  52.4    0.00   247
2018-10-19 12:00  18.1  21.8   183  52.5  35.4  51.7    0.00   363
2018-10-19 11:00  20.6  23.7   192  50.9  33.4  50.7    0.00   331
2018-10-19 10:00  16.3  21.4   186  50.4  34.3  53.8    0.00   468
2018-10-19 09:00  17.9  20.4   191  49.1  32.5  52.4    0.00   247
2018-10-19 08:00  17.5  20.4   189  46.8  32.4  56.9    0.00    82
2018-10-19 07:00  12.8  14.4   180  46.2  32.9  59.3    0.00     0
2018-10-19 06:00  12.1  14.4   177  46.8  31.9  55.8    0.00     0
2018-10-19 05:00   9.3  11.3   184  46.6  31.9  56.2    0.00     0
2018-10-19 04:00  15.2  17.7   183  46.2  30.5  53.8    0.00     0
2018-10-19 03:00  16.1  18.9   172  47.1  28.7  48.3    0.00     0
2018-10-19 02:00   8.7   9.3   179  46.9  28.8  49.0    0.00     0
2018-10-19 01:00  14.2  17.3   187  48.7  29.2  46.5    0.00     0
2018-10-19 00:00  13.4  15.9   190  48.7  29.5  47.1    0.00     0
2018-10-18 23:00  14.4  16.5   179  50.2  27.8  41.5    0.00     0
2018-10-18 22:00  14.6  16.7   178  50.7  27.6  40.4    0.00     0
2018-10-18 21:00  13.2  14.4   176  50.5  28.6  42.3    0.00     0
2018-10-18 20:00  12.4  14.4   178  51.6  28.2  40.0    0.00     0
2018-10-18 19:00   9.7  10.9   180  52.9  28.5  38.6    0.00     0
2018-10-18 18:00   8.2   8.6   187  54.9  28.5  35.9    0.00     0
2018-10-18 17:00  12.6  15.4   204  56.3  27.3  32.4    0.00   247
2018-10-18 16:00  10.5  13.0   217  55.9  28.4  34.4    0.00   575
2018-10-18 15:00  11.5  12.6   246  53.6  30.3  40.5    0.00   904
2018-10-18 14:00  12.2  13.4   245  52.5  30.1  41.9    0.00   986
2018-10-18 13:00  13.4  14.8   243  51.4  28.9  41.4    0.00  1077
2018-10-18 12:00  12.6  15.6   234  50.4  29.0  43.3    0.00  1081
2018-10-18 11:00  15.2  17.1   241  49.8  32.2  50.4    0.00   987
2018-10-18 10:00   5.6   7.0   192  47.7  33.9  58.6    0.00   905
2018-10-18 09:00   6.4   7.4   139  42.6  31.3  64.0    0.00   576
2018-10-18 08:00   9.9  10.7   123  38.1  30.3  73.1    0.00   247
2018-10-18 07:00   8.6   9.7   128  36.9  30.0  76.0    0.00     0
2018-10-18 06:00   8.7   9.3   136  39.9  28.3  62.8    0.00     0
2018-10-18 05:00   6.6   7.8   129  39.0  30.4  71.0    0.00     0
2018-10-18 04:00   7.6   8.6   126  40.6  29.2  63.3    0.00     0
2018-10-18 03:00  13.8  15.9   343  49.5  29.7  46.2    0.00     0
2018-10-18 02:00  15.0  18.3   335  49.6  29.2  44.9    0.00     0
2018-10-18 01:00  17.3  19.2   332  49.8  28.5  43.4    0.00     0
2018-10-18 00:00  18.5  20.6   318  50.2  28.7  43.1    0.00     0
2018-10-17 23:00  15.6  19.1   300  50.0  28.0  42.2    0.00     0
2018-10-17 22:00  20.2  23.3   305  50.0  26.6  39.8    0.00     0
2018-10-17 21:00  18.9  23.3   291  49.8  27.1  41.0    0.00     0
2018-10-17 20:00  17.1  23.3   310  49.5  28.6  44.2    0.00     0
2018-10-17 19:00  19.2  21.2   305  48.9  27.5  43.1    0.00     0
2018-10-17 18:00  14.6  18.3   306  48.4  28.1  45.0    0.00     0
2018-10-17 17:00  21.6  23.5   319  48.9  32.1  51.9    0.00   247
2018-10-17 16:00  15.2  19.1   294  48.7  31.7  51.5    0.00   606
2018-10-17 15:00  15.0  17.3   287  47.5  31.1  52.7    0.00   905
2018-10-17 14:00  16.1  19.1   307  45.7  31.3  56.9    0.00   456
2018-10-17 13:00  19.6  23.5   299  44.6  31.7  60.1    0.00   494
2018-10-17 12:00  25.3  29.2   309  44.2  31.6  60.8    0.00   411
2018-10-17 11:00  23.1  26.6   302  45.1  34.0  64.6    0.00   310
2018-10-17 10:00  25.5  29.0   288  45.1  33.4  63.1    0.00   165
2018-10-17 09:00  23.7  27.2   299  45.9  33.3  61.2    0.00   165
2018-10-17 08:00  28.6  33.2   294  46.6  35.9  65.9    0.00    82
2018-10-17 07:00  25.9  29.4   291  48.4  36.8  63.8    0.00     0
2018-10-17 06:00  26.0  30.5   271  49.5  38.0  64.4    0.00     0
2018-10-17 05:00  29.0  32.5   255  51.6  37.6  58.3    0.00     0
2018-10-17 04:00  28.0  32.9   246  52.5  39.1  60.0    0.00     0
2018-10-17 03:00  25.9  30.1   254  53.8  39.6  58.2    0.00     0
2018-10-17 02:00  25.3  26.8   252  54.3  41.0  60.3    0.00     0
2018-10-17 01:00  31.3  34.8   240  54.0  41.4  62.2    0.00     0
2018-10-17 00:00  32.3  36.2   234  54.5  41.0  60.0    0.00     0
2018-10-16 23:00  29.2  33.8   225  53.1  38.5  57.4    0.00     0
2018-10-16 22:00  21.0  23.7   207  52.5  35.5  52.0    0.00     0
2018-10-16 21:00  19.1  22.6   200  52.2  34.5  50.6    0.00     0
2018-10-16 20:00  16.7  19.1   194  52.0  33.0  48.0    0.00     0
2018-10-16 19:00  14.6  16.9   187  53.4  31.1  42.2    0.00     0
2018-10-16 18:00  17.7  21.0   196  55.0  31.4  40.2    0.00     0
2018-10-16 17:00  24.5  26.2   211  56.1  30.3  36.9    0.00   247
2018-10-16 16:00  20.0  22.2   199  55.6  28.9  35.5    0.00   581
2018-10-16 15:00  22.0  25.1   212  54.5  27.9  35.6    0.00   904
2018-10-16 14:00  26.4  32.1   213  52.5  29.4  40.6    0.00  1048
2018-10-16 13:00  29.0  31.3   202  50.2  28.2  42.2    0.00  1151
2018-10-16 12:00  23.9  28.8   197  48.7  29.4  46.9    0.00  1152
2018-10-16 11:00  23.9  29.5   209  46.6  29.0  50.0    0.00  1068
2018-10-16 10:00  22.4  27.0   197  44.1  30.2  57.9    0.00   905
2018-10-16 09:00  19.8  22.6   198  41.7  30.8  64.9    0.00   618
2018-10-16 08:00  13.4  15.6   190  37.9  30.9  75.6    0.00   247
2018-10-16 07:00  13.4  14.8   185  36.3  30.9  80.4    0.00     0
2018-10-16 06:00  14.2  15.6   181  36.1  30.8  80.6    0.00     0
2018-10-16 05:00   9.9  12.2   196  38.5  32.6  79.2    0.00     0
2018-10-16 04:00  14.0  17.3   194  37.9  32.4  80.2    0.00     0
2018-10-16 03:00  11.1  12.6   177  38.1  32.6  80.3    0.00     0
2018-10-16 02:00  19.8  22.6   253  46.0  33.2  60.6    0.00     0
2018-10-16 01:00  21.0  23.7   260  45.9  29.4  52.2    0.00     0
2018-10-16 00:00  20.8  23.7   271  46.4  28.9  50.1    0.00     0
2018-10-15 23:00  19.6  22.6   263  46.6  30.6  53.4    0.00     0
2018-10-15 22:00  22.6  26.6   260  46.9  31.4  54.4    0.00     0
2018-10-15 21:00  23.5  26.6   251  47.1  30.2  51.5    0.00     0
2018-10-15 20:00  20.2  22.9   252  47.1  28.9  48.7    0.00     0
2018-10-15 19:00  18.7  21.6   252  47.5  29.9  50.1    0.00     0